Time;durP1;ratioP1;P1;durP2;ratioP2;P2;SDS_P1;SDS_P2;PMS_P1;PMS_P2;Temp;Humidity;BMP_temperature;BMP_pressure;BME280_temperature;BME280_humidity;BME280_pressure;Samples;Min_cycle;Max_cycle;Signal;HPM_P1;HPM_P2
2022/10/04 00:01:24;;;;;;;0.00;0.00;;;8.00;99.90;;;;;;5032519;28;20544;-64
2022/10/04 00:04:02;;;;;;;0.00;0.00;;;7.90;99.90;;;;;;5035866;28;20233;-64
2022/10/04 00:06:28;;;;;;;0.00;0.00;;;7.90;99.90;;;;;;5036016;28;20550;-64
2022/10/04 00:09:07;;;;;;;0.00;0.00;;;7.90;99.90;;;;;;5032382;28;20178;-64
2022/10/04 00:11:37;;;;;;;0.13;0.13;;;7.90;99.90;;;;;;5049887;28;20196;-64
2022/10/04 00:14:24;;;;;;;0.00;0.00;;;7.90;99.90;;;;;;5034435;28;20178;-64
2022/10/04 00:16:51;;;;;;;0.00;0.00;;;7.90;99.90;;;;;;5041036;28;20696;-64
2022/10/04 00:19:22;;;;;;;0.00;0.00;;;7.80;99.90;;;;;;5040138;28;20215;-64
2022/10/04 00:22:11;;;;;;;0.00;0.00;;;7.80;99.90;;;;;;5035499;28;20182;-64
2022/10/04 00:24:57;;;;;;;0.00;0.00;;;7.80;99.90;;;;;;5040179;28;20182;-64
2022/10/04 00:27:25;;;;;;;0.00;0.00;;;7.80;99.90;;;;;;5036864;28;20205;-64
2022/10/04 00:30:02;;;;;;;0.08;0.08;;;7.80;99.90;;;;;;5038174;28;20165;-64
2022/10/04 00:32:38;;;;;;;0.00;0.00;;;7.80;99.90;;;;;;5034551;28;20189;-64
2022/10/04 00:35:23;;;;;;;0.00;0.00;;;7.80;99.90;;;;;;5045917;28;20180;-63
2022/10/04 00:38:07;;;;;;;0.00;0.00;;;7.70;99.90;;;;;;5038609;28;20213;-64
2022/10/04 00:40:34;;;;;;;0.10;0.10;;;7.80;99.90;;;;;;5035967;28;20185;-65
2022/10/04 00:43:05;;;;;;;0.20;0.10;;;7.70;99.90;;;;;;5044351;28;20186;-64
2022/10/04 00:45:44;;;;;;;0.00;0.00;;;7.80;99.90;;;;;;5034667;28;20184;-64
2022/10/04 00:48:28;;;;;;;0.03;0.03;;;7.80;99.90;;;;;;5042445;28;20173;-64
2022/10/04 00:51:01;;;;;;;0.08;0.08;;;7.80;99.90;;;;;;5045865;28;20193;-64
2022/10/04 00:53:49;;;;;;;0.00;0.00;;;7.70;99.90;;;;;;5031731;28;20174;-64
2022/10/04 00:56:36;;;;;;;0.00;0.00;;;7.70;99.90;;;;;;5037933;28;20186;-64
2022/10/04 00:59:21;;;;;;;0.08;0.08;;;7.70;99.90;;;;;;5046140;28;20193;-64
2022/10/04 01:01:52;;;;;;;0.10;0.10;;;7.70;99.90;;;;;;5033148;28;20243;-64
2022/10/04 01:04:59;;;;;;;0.00;0.00;;;7.70;99.90;;;;;;5042319;28;20257;-64
2022/10/04 01:07:53;;;;;;;0.00;0.00;;;7.70;99.90;;;;;;5029874;28;20178;-64
2022/10/04 01:10:25;;;;;;;0.00;0.00;;;7.60;99.90;;;;;;5047246;28;20285;-64
2022/10/04 01:12:59;;;;;;;0.00;0.00;;;7.60;99.90;;;;;;5026272;28;20673;-64
2022/10/04 01:15:49;;;;;;;0.00;0.00;;;7.60;99.90;;;;;;5032582;28;20550;-64
2022/10/04 01:18:28;;;;;;;0.00;0.00;;;7.60;99.90;;;;;;5029180;28;20222;-64
2022/10/04 01:20:59;;;;;;;0.05;0.05;;;7.60;99.90;;;;;;5042967;28;20718;-65
2022/10/04 01:23:48;;;;;;;0.03;0.03;;;7.60;99.90;;;;;;5049205;28;20798;-64
2022/10/04 01:26:28;;;;;;;0.30;0.30;;;7.60;99.90;;;;;;5049791;28;20275;-63
2022/10/04 01:29:06;;;;;;;0.00;0.00;;;7.60;99.90;;;;;;5047333;28;20303;-63
2022/10/04 01:31:34;;;;;;;0.35;0.20;;;7.60;99.90;;;;;;5046259;28;20223;-63
2022/10/04 01:34:01;;;;;;;0.00;0.00;;;7.60;99.90;;;;;;5047768;28;20240;-64
2022/10/04 01:36:27;;;;;;;0.00;0.00;;;7.60;99.90;;;;;;5049434;28;20304;-64
2022/10/04 01:38:54;;;;;;;0.00;0.00;;;7.60;99.90;;;;;;5039212;28;20178;-64
2022/10/04 01:41:28;;;;;;;0.00;0.00;;;7.60;99.90;;;;;;5042842;28;20546;-64
2022/10/04 01:43:57;;;;;;;0.00;0.00;;;7.60;99.90;;;;;;5043383;28;20196;-64
2022/10/04 01:46:27;;;;;;;0.30;0.30;;;7.60;99.90;;;;;;5047687;28;20185;-64
2022/10/04 01:48:55;;;;;;;0.00;0.00;;;7.60;99.90;;;;;;5032698;28;20297;-64
2022/10/04 01:51:29;;;;;;;0.00;0.00;;;7.60;99.90;;;;;;5037900;28;20178;-64
2022/10/04 01:54:01;;;;;;;0.05;0.05;;;7.60;99.90;;;;;;5031321;28;20244;-64
2022/10/04 01:56:41;;;;;;;0.00;0.00;;;7.60;99.90;;;;;;5046422;28;20193;-64
2022/10/04 01:59:14;;;;;;;0.00;0.00;;;7.50;99.90;;;;;;5036263;28;20193;-64
2022/10/04 02:01:47;;;;;;;0.00;0.00;;;7.50;99.90;;;;;;5048904;28;20208;-63
2022/10/04 02:04:26;;;;;;;0.00;0.00;;;7.50;99.90;;;;;;5045342;28;20218;-64
2022/10/04 02:06:55;;;;;;;0.00;0.00;;;7.50;99.90;;;;;;5047844;28;20200;-64
2022/10/04 02:09:33;;;;;;;0.00;0.00;;;7.50;99.90;;;;;;5044234;28;20212;-63
2022/10/04 02:12:00;;;;;;;0.00;0.00;;;7.40;99.90;;;;;;5052194;28;20287;-63
2022/10/04 02:14:31;;;;;;;0.00;0.00;;;7.50;99.90;;;;;;5040313;28;20189;-63
2022/10/04 02:16:58;;;;;;;0.00;0.00;;;7.50;99.90;;;;;;5034900;28;20206;-64
2022/10/04 02:19:32;;;;;;;0.00;0.00;;;7.40;99.90;;;;;;5040176;28;20280;-64
2022/10/04 02:22:03;;;;;;;0.00;0.00;;;7.40;99.90;;;;;;5043592;28;20231;-64
2022/10/04 02:24:34;;;;;;;0.10;0.10;;;7.50;99.90;;;;;;5039247;28;20182;-64
2022/10/04 02:26:59;;;;;;;0.00;0.00;;;7.50;99.90;;;;;;5041723;28;20681;-64
2022/10/04 02:29:25;;;;;;;0.00;0.00;;;7.40;99.90;;;;;;5042932;28;20261;-63
2022/10/04 02:34:36;;;;;;;0.15;0.15;;;7.40;99.90;;;;;;5028542;28;20663;-63
2022/10/04 02:37:03;;;;;;;0.00;0.00;;;7.40;99.90;;;;;;5038736;28;20213;-64
2022/10/04 02:39:39;;;;;;;0.00;0.00;;;7.30;99.90;;;;;;5041812;28;20197;-64
2022/10/04 02:42:35;;;;;;;0.00;0.00;;;7.30;99.90;;;;;;5042784;28;20265;-63
2022/10/04 02:45:16;;;;;;;0.10;0.10;;;7.30;99.90;;;;;;5039130;28;20221;-64
2022/10/04 02:47:46;;;;;;;0.10;0.10;;;7.30;99.90;;;;;;5034875;28;20531;-64
2022/10/04 02:50:22;;;;;;;0.17;0.13;;;7.30;99.90;;;;;;5048115;28;20181;-64
2022/10/04 02:52:57;;;;;;;0.00;0.00;;;7.30;99.90;;;;;;5039808;28;20197;-64
2022/10/04 02:55:26;;;;;;;0.00;0.00;;;7.30;99.90;;;;;;5037218;28;20185;-64
2022/10/04 02:57:53;;;;;;;0.03;0.03;;;7.30;99.90;;;;;;5034597;28;20218;-63
2022/10/04 03:00:26;;;;;;;0.10;0.10;;;7.20;99.90;;;;;;5047616;28;20180;-64
2022/10/04 03:03:15;;;;;;;0.00;0.00;;;7.20;99.90;;;;;;5048643;28;20240;-64
2022/10/04 03:05:43;;;;;;;0.20;0.20;;;7.20;99.90;;;;;;5040590;28;20668;-64
2022/10/04 03:08:10;;;;;;;0.00;0.00;;;7.10;99.90;;;;;;5050595;28;20300;-64
2022/10/04 03:10:36;;;;;;;0.00;0.00;;;7.20;99.90;;;;;;5043169;28;20547;-64
2022/10/04 03:13:03;;;;;;;0.20;0.20;;;7.20;99.90;;;;;;5036015;28;20182;-64
2022/10/04 03:15:29;;;;;;;0.00;0.00;;;7.20;99.90;;;;;;5043438;28;20173;-64
2022/10/04 03:17:54;;;;;;;0.00;0.00;;;7.20;99.90;;;;;;5047421;28;20599;-63
2022/10/04 03:20:20;;;;;;;0.00;0.00;;;7.20;99.90;;;;;;5049622;28;20186;-63
2022/10/04 03:22:50;;;;;;;0.00;0.00;;;7.10;99.90;;;;;;5051312;28;20192;-63
2022/10/04 03:25:28;;;;;;;0.00;0.00;;;7.20;99.90;;;;;;5051359;28;20188;-63
2022/10/04 03:27:58;;;;;;;0.10;0.10;;;7.20;99.90;;;;;;5049713;28;20264;-63
2022/10/04 03:30:24;;;;;;;0.10;0.10;;;7.20;99.90;;;;;;5044544;28;20170;-63
2022/10/04 03:32:50;;;;;;;0.00;0.00;;;7.10;99.90;;;;;;5037393;28;20272;-63
2022/10/04 03:35:31;;;;;;;0.00;0.00;;;7.20;99.90;;;;;;5044988;28;20235;-63
2022/10/04 03:37:57;;;;;;;0.00;0.00;;;7.20;99.90;;;;;;5047485;28;20618;-64
2022/10/04 03:40:29;;;;;;;0.10;0.10;;;7.20;99.90;;;;;;5034851;28;20179;-63
2022/10/04 03:42:56;;;;;;;0.00;0.00;;;7.20;99.90;;;;;;5033829;28;20603;-63
2022/10/04 03:45:23;;;;;;;0.00;0.00;;;7.20;99.90;;;;;;5033622;28;20232;-63
2022/10/04 03:47:52;;;;;;;0.00;0.00;;;7.20;99.90;;;;;;5040852;28;20540;-63
2022/10/04 03:50:25;;;;;;;0.00;0.00;;;7.20;99.90;;;;;;5032525;28;20661;-64
2022/10/04 03:52:59;;;;;;;0.00;0.00;;;7.20;99.90;;;;;;5032719;28;20178;-63
2022/10/04 03:55:34;;;;;;;0.22;0.22;;;7.20;99.90;;;;;;5033333;28;20190;-62
2022/10/04 03:58:01;;;;;;;0.00;0.00;;;7.20;99.90;;;;;;5012749;28;20740;-63
2022/10/04 04:00:27;;;;;;;0.00;0.00;;;7.20;99.90;;;;;;5039065;28;20181;-63
2022/10/04 04:03:04;;;;;;;0.30;0.30;;;7.20;99.90;;;;;;5052215;28;20236;-63
2022/10/04 04:05:43;;;;;;;0.00;0.00;;;7.10;99.90;;;;;;5032338;28;20185;-63
2022/10/04 04:08:25;;;;;;;0.00;0.00;;;7.10;99.90;;;;;;5035498;28;20262;-62
2022/10/04 04:10:54;;;;;;;0.00;0.00;;;7.10;99.90;;;;;;5040765;28;20252;-64
2022/10/04 04:13:42;;;;;;;0.00;0.00;;;7.10;99.90;;;;;;5036261;28;20204;-62
2022/10/04 04:16:08;;;;;;;0.00;0.00;;;7.10;99.90;;;;;;5042863;28;20667;-63
2022/10/04 04:18:39;;;;;;;0.00;0.00;;;7.10;99.90;;;;;;5050507;28;20255;-63
2022/10/04 04:21:06;;;;;;;0.13;0.13;;;7.10;99.90;;;;;;5041051;28;20184;-64
2022/10/04 04:23:43;;;;;;;0.00;0.00;;;7.10;99.90;;;;;;5049888;28;20266;-64
2022/10/04 04:26:27;;;;;;;0.00;0.00;;;7.10;99.90;;;;;;5045359;28;20174;-63
2022/10/04 04:29:02;;;;;;;0.00;0.00;;;7.00;99.90;;;;;;5046600;28;20181;-60
2022/10/04 04:31:34;;;;;;;0.00;0.00;;;7.00;99.90;;;;;;5047291;28;20181;-66
2022/10/04 04:34:02;;;;;;;0.00;0.00;;;7.10;99.90;;;;;;5044150;28;20522;-64
2022/10/04 04:36:39;;;;;;;0.00;0.00;;;7.10;99.90;;;;;;5041500;28;20267;-62
2022/10/04 04:41:58;;;;;;;0.00;0.00;;;7.10;99.90;;;;;;5025714;28;20177;-63
2022/10/04 04:44:24;;;;;;;0.00;0.00;;;7.00;99.90;;;;;;5031610;28;20214;-63
2022/10/04 04:46:51;;;;;;;0.20;0.20;;;7.00;99.90;;;;;;5031725;28;20223;-63
2022/10/04 04:49:17;;;;;;;0.03;0.03;;;7.00;99.90;;;;;;5031321;28;20170;-63
2022/10/04 04:51:49;;;;;;;0.00;0.00;;;7.00;99.90;;;;;;5031747;28;20173;-63
2022/10/04 04:54:17;;;;;;;0.00;0.00;;;6.90;99.90;;;;;;5031604;28;20190;-63
2022/10/04 04:56:43;;;;;;;0.00;0.00;;;7.00;99.90;;;;;;5031772;28;20232;-63
2022/10/04 04:59:11;;;;;;;0.20;0.20;;;6.90;99.90;;;;;;5031634;28;20630;-63
2022/10/04 05:01:45;;;;;;;0.05;0.05;;;6.90;99.90;;;;;;5031673;28;20170;-62
2022/10/04 05:04:13;;;;;;;0.00;0.00;;;7.00;99.90;;;;;;5031430;28;20228;-62
2022/10/04 05:07:01;;;;;;;0.10;0.10;;;6.90;99.90;;;;;;5031393;28;20197;-63
2022/10/04 05:09:31;;;;;;;0.00;0.00;;;6.90;99.90;;;;;;5031333;28;20288;-63
2022/10/04 05:12:11;;;;;;;0.00;0.00;;;6.90;99.90;;;;;;5031593;28;20174;-63
2022/10/04 05:14:40;;;;;;;0.10;0.00;;;6.90;99.90;;;;;;5031559;28;20240;-63
2022/10/04 05:17:06;;;;;;;0.10;0.10;;;6.90;99.90;;;;;;5031494;28;20197;-63
2022/10/04 05:19:35;;;;;;;0.00;0.00;;;6.90;99.90;;;;;;5031296;28;20256;-63
2022/10/04 05:22:13;;;;;;;0.00;0.00;;;6.90;99.90;;;;;;5031469;28;20188;-63
2022/10/04 05:24:43;;;;;;;0.00;0.00;;;6.90;99.90;;;;;;5031593;28;20703;-63
2022/10/04 05:27:22;;;;;;;0.00;0.00;;;6.90;99.90;;;;;;5031469;28;20186;-63
2022/10/04 05:30:01;;;;;;;0.00;0.00;;;6.90;99.90;;;;;;5031642;28;20268;-63
2022/10/04 05:32:44;;;;;;;0.03;0.03;;;6.90;99.90;;;;;;5028912;28;20214;-62
2022/10/04 05:35:19;;;;;;;0.08;0.08;;;6.90;99.90;;;;;;5015341;28;20638;-62
2022/10/04 05:37:52;;;;;;;0.00;0.00;;;7.00;99.90;;;;;;5015540;28;20229;-62
2022/10/04 05:40:45;;;;;;;0.00;0.00;;;7.00;99.90;;;;;;5015291;28;20262;-62
2022/10/04 05:43:31;;;;;;;0.00;0.00;;;7.00;99.90;;;;;;5015320;28;20189;-62
2022/10/04 05:46:18;;;;;;;0.10;0.10;;;7.00;99.90;;;;;;5015348;28;20270;-62
2022/10/04 05:48:47;;;;;;;0.00;0.00;;;7.00;99.90;;;;;;5015274;28;20182;-63
2022/10/04 05:51:24;;;;;;;0.00;0.00;;;7.00;99.90;;;;;;5015077;28;20662;-63
2022/10/04 05:53:51;;;;;;;0.00;0.00;;;7.10;99.90;;;;;;5015285;28;20181;-63
2022/10/04 05:56:50;;;;;;;0.00;0.00;;;7.10;99.90;;;;;;5015037;28;20183;-63
2022/10/04 05:59:26;;;;;;;0.08;0.08;;;7.20;99.90;;;;;;5015067;28;20680;-63
2022/10/04 06:02:15;;;;;;;0.30;0.30;;;7.20;99.90;;;;;;5014985;28;20677;-63
2022/10/04 06:05:03;;;;;;;0.40;0.40;;;7.20;99.90;;;;;;5014815;28;20233;-63
2022/10/04 06:07:38;;;;;;;0.00;0.00;;;7.30;99.90;;;;;;5026856;28;20213;-63
2022/10/04 06:10:41;;;;;;;0.03;0.03;;;7.30;99.90;;;;;;5034732;28;20188;-62
2022/10/04 06:13:13;;;;;;;0.40;0.40;;;7.40;99.90;;;;;;5034612;28;20177;-62
2022/10/04 06:15:50;;;;;;;0.00;0.00;;;7.50;99.90;;;;;;5034681;28;20171;-63
2022/10/04 06:18:34;;;;;;;0.00;0.00;;;7.60;99.90;;;;;;5034417;28;20210;-63
2022/10/04 06:21:24;;;;;;;0.10;0.10;;;7.70;99.90;;;;;;5034530;28;20170;-63
2022/10/04 06:24:16;;;;;;;0.00;0.00;;;7.70;99.90;;;;;;5034454;28;20193;-63
2022/10/04 06:26:47;;;;;;;0.00;0.00;;;7.80;99.90;;;;;;5034435;28;20190;-63
2022/10/04 06:29:20;;;;;;;0.08;0.08;;;7.80;99.90;;;;;;5034237;28;20232;-63
2022/10/04 06:32:10;;;;;;;0.80;0.10;;;7.90;99.90;;;;;;5034348;28;20179;-63
2022/10/04 06:35:07;;;;;;;0.13;0.13;;;7.90;99.90;;;;;;5014485;28;20182;-63
2022/10/04 06:37:57;;;;;;;0.00;0.00;;;8.00;99.90;;;;;;5014316;28;20704;-63
2022/10/04 06:40:41;;;;;;;0.10;0.10;;;8.00;99.90;;;;;;5014326;28;20214;-63
2022/10/04 06:43:18;;;;;;;0.00;0.00;;;8.10;99.90;;;;;;5014241;28;20713;-63
2022/10/04 06:46:05;;;;;;;0.30;0.30;;;8.20;99.90;;;;;;5013285;28;20193;-63
2022/10/04 06:48:58;;;;;;;0.00;0.00;;;8.30;99.90;;;;;;5014223;28;20190;-62
2022/10/04 06:51:42;;;;;;;0.00;0.00;;;8.40;99.90;;;;;;5014106;28;20232;-63
2022/10/04 06:54:35;;;;;;;0.00;0.00;;;8.50;99.90;;;;;;5014013;28;20549;-63
2022/10/04 06:57:31;;;;;;;0.32;0.13;;;8.60;99.90;;;;;;5012767;28;20555;-63
2022/10/04 07:00:17;;;;;;;0.00;0.00;;;8.70;99.90;;;;;;5014019;28;20635;-62
2022/10/04 07:02:50;;;;;;;0.05;0.05;;;8.80;99.90;;;;;;5013830;28;20266;-63
2022/10/04 07:05:45;;;;;;;0.00;0.00;;;8.90;99.90;;;;;;5013833;28;20186;-62
2022/10/04 07:08:30;;;;;;;0.00;0.00;;;8.90;99.90;;;;;;5031571;28;20641;-62
2022/10/04 07:11:16;;;;;;;0.00;0.00;;;9.00;99.90;;;;;;5033539;28;20201;-63
2022/10/04 07:13:48;;;;;;;0.10;0.10;;;9.10;99.90;;;;;;5033487;28;20182;-63
2022/10/04 07:16:34;;;;;;;0.00;0.00;;;9.10;99.90;;;;;;5033378;28;20170;-63
2022/10/04 07:19:20;;;;;;;0.15;0.15;;;9.20;99.90;;;;;;5033437;28;20555;-63
2022/10/04 07:22:08;;;;;;;0.00;0.00;;;9.30;99.90;;;;;;5033452;28;20182;-63
2022/10/04 07:24:55;;;;;;;0.10;0.10;;;9.30;99.90;;;;;;5033301;28;20571;-63
2022/10/04 07:27:46;;;;;;;0.00;0.00;;;9.40;99.90;;;;;;5033200;28;20232;-63
2022/10/04 07:30:18;;;;;;;0.00;0.00;;;9.50;99.90;;;;;;5033026;28;20171;-63
2022/10/04 07:32:47;;;;;;;0.00;0.00;;;9.70;99.90;;;;;;5033066;28;20190;-63
2022/10/04 07:35:35;;;;;;;0.00;0.00;;;9.80;99.90;;;;;;5031740;28;20206;-63
2022/10/04 07:38:14;;;;;;;0.00;0.00;;;10.00;99.90;;;;;;5032755;28;20229;-63
2022/10/04 07:41:08;;;;;;;0.00;0.00;;;10.20;99.90;;;;;;5033138;28;20174;-63
2022/10/04 07:44:00;;;;;;;0.00;0.00;;;10.40;99.90;;;;;;5032995;28;20264;-63
2022/10/04 07:47:02;;;;;;;0.00;0.00;;;10.60;99.90;;;;;;5032884;28;20256;-63
2022/10/04 07:49:27;;;;;;;0.00;0.00;;;10.70;99.90;;;;;;5032943;28;20184;-63
2022/10/04 07:52:11;;;;;;;0.00;0.00;;;10.90;99.90;;;;;;5032777;28;20538;-63
2022/10/04 07:55:09;;;;;;;0.00;0.00;;;11.00;99.90;;;;;;5032818;28;20232;-63
2022/10/04 07:57:50;;;;;;;0.00;0.00;;;11.30;99.90;;;;;;5032580;28;20210;-63
2022/10/04 08:00:19;;;;;;;0.00;0.00;;;11.60;99.90;;;;;;5032642;28;20653;-63
2022/10/04 08:03:03;;;;;;;0.00;0.00;;;12.00;99.90;;;;;;5032526;28;20178;-63
2022/10/04 08:05:40;;;;;;;0.00;0.00;;;12.50;99.90;;;;;;5032480;28;20562;-63
2022/10/04 08:08:21;;;;;;;0.00;0.00;;;13.10;99.90;;;;;;5032399;28;20201;-63
2022/10/04 08:11:20;;;;;;;0.00;0.00;;;13.70;99.90;;;;;;5032517;28;20176;-64
2022/10/04 08:14:05;;;;;;;0.00;0.00;;;14.20;99.90;;;;;;5032360;28;20173;-64
2022/10/04 08:17:01;;;;;;;0.00;0.00;;;14.60;99.90;;;;;;5032287;28;20186;-64
2022/10/04 08:19:56;;;;;;;0.08;0.08;;;14.90;99.90;;;;;;5032222;28;20174;-64
2022/10/04 08:22:48;;;;;;;0.00;0.00;;;15.30;99.90;;;;;;5032289;28;20182;-62
2022/10/04 08:25:19;;;;;;;0.00;0.00;;;15.80;99.90;;;;;;5023543;28;20182;-62
2022/10/04 08:31:12;;;;;;;0.00;0.00;;;16.30;99.90;;;;;;5032057;28;20276;-62
2022/10/04 08:33:45;;;;;;;0.00;0.00;;;16.60;99.90;;;;;;5032245;28;20190;-62
2022/10/04 08:36:30;;;;;;;0.00;0.00;;;16.80;99.90;;;;;;5032043;28;20186;-61
2022/10/04 08:38:58;;;;;;;0.00;0.00;;;16.90;99.90;;;;;;5032197;28;20245;-62
2022/10/04 08:42:04;;;;;;;0.00;0.00;;;17.00;99.90;;;;;;5031986;28;20177;-61
2022/10/04 08:45:00;;;;;;;0.10;0.08;;;17.10;99.90;;;;;;5031972;28;20186;-61
2022/10/04 08:48:12;;;;;;;0.43;0.20;;;17.10;99.90;;;;;;5031931;28;20182;-62
2022/10/04 08:50:59;;;;;;;0.00;0.00;;;17.30;99.90;;;;;;5032070;28;20177;-62
2022/10/04 08:53:41;;;;;;;0.88;0.88;;;17.60;99.90;;;;;;5031864;28;20210;-62
2022/10/04 08:56:12;;;;;;;0.00;0.00;;;17.70;99.90;;;;;;5031811;28;20224;-61
2022/10/04 08:59:09;;;;;;;0.00;0.00;;;17.80;99.90;;;;;;5031919;28;20271;-61
2022/10/04 09:02:08;;;;;;;0.00;0.00;;;17.90;99.90;;;;;;5031738;28;20760;-62
2022/10/04 09:04:52;;;;;;;0.20;0.00;;;18.00;99.90;;;;;;5031618;28;20230;-61
2022/10/04 09:07:48;;;;;;;0.00;0.00;;;18.10;99.80;;;;;;5031861;28;20228;-62
2022/10/04 09:10:32;;;;;;;0.05;0.05;;;18.00;98.80;;;;;;5035676;28;20174;-61
2022/10/04 09:13:12;;;;;;;0.00;0.00;;;18.20;99.00;;;;;;5035878;28;20188;-62
2022/10/04 09:15:43;;;;;;;0.00;0.00;;;18.20;98.90;;;;;;5035749;28;20534;-62
2022/10/04 09:18:12;;;;;;;0.13;0.13;;;18.30;98.40;;;;;;5035493;28;20842;-61
2022/10/04 09:20:53;;;;;;;0.00;0.00;;;18.20;98.20;;;;;;5035533;28;20715;-62
2022/10/04 09:23:32;;;;;;;0.00;0.00;;;18.20;98.50;;;;;;5035587;28;20178;-62
2022/10/04 09:26:44;;;;;;;0.00;0.00;;;18.30;99.00;;;;;;5035591;28;20188;-62
2022/10/04 09:29:37;;;;;;;0.00;0.00;;;18.40;98.00;;;;;;5013402;28;20178;-62
2022/10/04 09:32:37;;;;;;;0.00;0.00;;;18.40;98.20;;;;;;5035466;28;20253;-62
2022/10/04 09:35:06;;;;;;;0.10;0.10;;;18.60;98.30;;;;;;5015647;28;20685;-61
2022/10/04 09:37:47;;;;;;;0.10;0.10;;;18.70;98.40;;;;;;5015288;28;20245;-62
2022/10/04 09:40:30;;;;;;;0.00;0.00;;;18.70;97.30;;;;;;5015390;28;20262;-62
2022/10/04 09:43:30;;;;;;;0.17;0.08;;;18.70;97.60;;;;;;5015443;28;20190;-62
2022/10/04 09:46:27;;;;;;;0.00;0.00;;;18.90;97.80;;;;;;5015464;28;20171;-62
2022/10/04 09:49:12;;;;;;;0.00;0.00;;;19.00;97.50;;;;;;5015200;28;20179;-62
2022/10/04 09:52:00;;;;;;;0.00;0.00;;;19.10;97.10;;;;;;5015373;28;20193;-62
2022/10/04 09:54:44;;;;;;;0.00;0.00;;;19.20;96.70;;;;;;5015177;28;20234;-62
2022/10/04 09:57:31;;;;;;;0.00;0.00;;;19.30;95.90;;;;;;5015065;28;20622;-61
2022/10/04 10:00:08;;;;;;;0.10;0.10;;;19.30;96.40;;;;;;5015287;28;20178;-61
2022/10/04 10:02:45;;;;;;;0.00;0.00;;;19.20;96.70;;;;;;5014957;28;20249;-61
2022/10/04 10:05:26;;;;;;;0.00;0.00;;;19.30;97.10;;;;;;5014917;28;20194;-62
2022/10/04 10:08:12;;;;;;;0.00;0.00;;;19.40;96.60;;;;;;5030137;28;20180;-62
2022/10/04 10:14:22;;;;;;;0.10;0.10;;;19.60;96.00;;;;;;5034937;28;20660;-62
2022/10/04 10:17:02;;;;;;;0.08;0.08;;;19.70;95.00;;;;;;5034602;28;20174;-61
2022/10/04 10:19:49;;;;;;;0.05;0.05;;;19.70;95.00;;;;;;5034145;28;20208;-62
2022/10/04 10:22:29;;;;;;;0.00;0.00;;;19.60;95.50;;;;;;5034248;28;20520;-62
2022/10/04 10:25:00;;;;;;;0.00;0.00;;;19.70;94.30;;;;;;5034343;28;20633;-62
2022/10/04 10:27:51;;;;;;;0.00;0.00;;;19.80;94.40;;;;;;5034383;28;20182;-62
2022/10/04 10:30:31;;;;;;;0.00;0.00;;;19.90;94.60;;;;;;5034320;28;20182;-62
2022/10/04 10:33:10;;;;;;;0.00;0.00;;;20.10;94.70;;;;;;5034261;28;20182;-62
2022/10/04 10:35:54;;;;;;;0.00;0.00;;;20.40;95.30;;;;;;5034244;28;20523;-62
2022/10/04 10:38:58;;;;;;;0.00;0.00;;;20.40;94.60;;;;;;5034071;28;20299;-62
2022/10/04 10:41:34;;;;;;;0.00;0.00;;;20.50;94.90;;;;;;5032677;28;20182;-62
2022/10/04 10:44:21;;;;;;;0.00;0.00;;;20.80;93.40;;;;;;5034150;28;20186;-62
2022/10/04 10:47:14;;;;;;;0.00;0.00;;;20.80;92.90;;;;;;5034126;28;20182;-62
2022/10/04 10:49:51;;;;;;;0.00;0.00;;;20.80;93.40;;;;;;5034133;28;20178;-62
2022/10/04 10:52:44;;;;;;;0.00;0.00;;;20.80;92.50;;;;;;5033962;28;20209;-62
2022/10/04 10:55:24;;;;;;;0.00;0.00;;;21.00;92.10;;;;;;5033832;28;20221;-62
2022/10/04 10:58:33;;;;;;;0.03;0.03;;;21.20;91.50;;;;;;5033906;28;20217;-62
2022/10/04 11:01:38;;;;;;;0.25;0.25;;;21.40;90.60;;;;;;5033736;28;20712;-62
2022/10/04 11:04:42;;;;;;;0.00;0.00;;;21.50;90.10;;;;;;5033520;28;20582;-62
2022/10/04 11:07:15;;;;;;;0.10;0.10;;;21.50;89.50;;;;;;5033459;28;20172;-62
2022/10/04 11:10:18;;;;;;;0.00;0.00;;;21.40;88.30;;;;;;5033623;28;20178;-63
2022/10/04 11:12:54;;;;;;;0.00;0.00;;;21.30;88.60;;;;;;5033634;28;20178;-63
2022/10/04 11:16:01;;;;;;;0.15;0.15;;;21.30;89.30;;;;;;5033443;28;20174;-63
2022/10/04 11:19:05;;;;;;;0.10;0.10;;;21.30;89.60;;;;;;5027186;28;20222;-62
2022/10/04 11:21:45;;;;;;;0.03;0.03;;;21.20;87.70;;;;;;5033423;28;20182;-62
2022/10/04 11:24:43;;;;;;;0.10;0.10;;;21.30;88.80;;;;;;5033311;28;20572;-61
2022/10/04 11:27:27;;;;;;;0.10;0.10;;;21.40;87.80;;;;;;5033260;28;20257;-62
2022/10/04 11:30:21;;;;;;;0.05;0.05;;;21.60;87.00;;;;;;5032827;28;20185;-62
2022/10/04 11:33:04;;;;;;;0.00;0.00;;;21.80;87.90;;;;;;5033165;28;20182;-62
2022/10/04 11:35:30;;;;;;;0.00;0.00;;;21.70;87.40;;;;;;5033048;28;20182;-62
2022/10/04 11:38:10;;;;;;;0.00;0.00;;;21.60;86.10;;;;;;5032800;28;20642;-62
2022/10/04 11:40:58;;;;;;;0.00;0.00;;;21.50;86.40;;;;;;5033220;28;20204;-62
2022/10/04 11:44:14;;;;;;;0.00;0.00;;;21.70;86.20;;;;;;5032890;28;20178;-62
2022/10/04 11:46:54;;;;;;;0.08;0.08;;;21.80;87.00;;;;;;5032765;28;20634;-63
2022/10/04 11:49:55;;;;;;;0.00;0.00;;;21.70;85.50;;;;;;5032883;28;20189;-63
2022/10/04 11:52:48;;;;;;;0.00;0.00;;;21.70;86.70;;;;;;5032827;28;20257;-63
2022/10/04 11:55:41;;;;;;;0.00;0.00;;;21.80;85.00;;;;;;5032572;28;20220;-63
2022/10/04 11:58:24;;;;;;;0.00;0.00;;;22.10;84.30;;;;;;5032616;28;20332;-63
2022/10/04 12:00:53;;;;;;;0.00;0.00;;;22.20;84.30;;;;;;5032739;28;20174;-63
2022/10/04 12:03:44;;;;;;;0.00;0.00;;;22.40;84.00;;;;;;5032366;28;20280;-63
2022/10/04 12:06:22;;;;;;;0.00;0.00;;;22.40;83.30;;;;;;5031118;28;20189;-63
2022/10/04 12:09:10;;;;;;;0.00;0.00;;;22.40;83.00;;;;;;5032634;28;20189;-63
2022/10/04 12:14:50;;;;;;;0.00;0.00;;;22.20;83.70;;;;;;5032402;28;20232;-63
2022/10/04 12:17:27;;;;;;;0.00;0.00;;;22.20;82.80;;;;;;5032028;28;20205;-63
2022/10/04 12:20:19;;;;;;;0.00;0.00;;;22.00;85.10;;;;;;5032406;28;20185;-63
2022/10/04 12:22:59;;;;;;;0.10;0.10;;;21.90;84.80;;;;;;5032381;28;20200;-63
2022/10/04 12:25:36;;;;;;;0.00;0.00;;;21.80;85.50;;;;;;5032272;28;20189;-63
2022/10/04 12:28:39;;;;;;;0.00;0.00;;;21.70;86.40;;;;;;5032296;28;20260;-63
2022/10/04 12:31:10;;;;;;;0.00;0.00;;;21.70;85.60;;;;;;5032111;28;20176;-63
2022/10/04 12:33:57;;;;;;;0.00;0.00;;;21.60;87.00;;;;;;5032215;28;20190;-63
2022/10/04 12:36:40;;;;;;;0.00;0.00;;;21.70;85.80;;;;;;5032199;28;20182;-63
2022/10/04 12:39:20;;;;;;;0.35;0.20;;;21.70;83.90;;;;;;5031989;28;20194;-63
2022/10/04 12:41:59;;;;;;;0.00;0.00;;;21.50;84.40;;;;;;5032094;28;20182;-63
2022/10/04 12:44:46;;;;;;;0.10;0.10;;;21.30;84.60;;;;;;5031976;28;20217;-62
2022/10/04 12:48:01;;;;;;;0.00;0.00;;;21.10;84.60;;;;;;5031907;28;20641;-63
2022/10/04 12:50:41;;;;;;;0.00;0.00;;;21.10;85.70;;;;;;5029746;28;20268;-62
2022/10/04 12:53:19;;;;;;;0.00;0.00;;;21.00;86.50;;;;;;5031984;28;20182;-62
2022/10/04 12:56:05;;;;;;;0.00;0.00;;;21.00;87.40;;;;;;5032040;28;20177;-63
2022/10/04 12:58:52;;;;;;;0.08;0.08;;;21.10;87.30;;;;;;5031896;28;20224;-63
2022/10/04 13:01:39;;;;;;;0.00;0.00;;;21.30;86.00;;;;;;5031836;28;20645;-63
2022/10/04 13:04:21;;;;;;;0.00;0.00;;;21.30;85.80;;;;;;5031676;28;20570;-62
2022/10/04 13:07:25;;;;;;;0.00;0.00;;;21.50;86.60;;;;;;5031811;28;20182;-63
2022/10/04 13:10:14;;;;;;;0.00;0.00;;;21.60;85.10;;;;;;5025366;28;20205;-63
2022/10/04 13:13:07;;;;;;;0.00;0.00;;;21.50;85.20;;;;;;5031916;28;20181;-64
2022/10/04 13:15:55;;;;;;;0.00;0.00;;;21.40;85.10;;;;;;5031756;28;20185;-63
2022/10/04 13:18:31;;;;;;;0.00;0.00;;;21.40;86.20;;;;;;5031477;28;20566;-63
2022/10/04 13:21:10;;;;;;;0.00;0.00;;;21.30;84.50;;;;;;5031707;28;20177;-63
2022/10/04 13:23:50;;;;;;;0.00;0.00;;;21.20;85.40;;;;;;5031583;28;20182;-63
2022/10/04 13:27:00;;;;;;;0.00;0.00;;;21.20;87.60;;;;;;5031444;28;20182;-63
2022/10/04 13:29:53;;;;;;;0.00;0.00;;;21.10;88.10;;;;;;5019310;28;20194;-63
2022/10/04 13:32:25;;;;;;;0.00;0.00;;;21.00;88.20;;;;;;5031263;28;20186;-63
2022/10/04 13:35:20;;;;;;;0.00;0.00;;;21.00;88.40;;;;;;5031400;28;20189;-63
2022/10/04 13:38:23;;;;;;;0.00;0.00;;;21.00;88.90;;;;;;5031548;28;20278;-63
2022/10/04 13:41:21;;;;;;;0.00;0.00;;;21.00;89.20;;;;;;5031540;28;20315;-63
2022/10/04 13:44:11;;;;;;;0.00;0.00;;;20.90;88.80;;;;;;5031522;28;20197;-63
2022/10/04 13:47:07;;;;;;;0.00;0.00;;;20.90;88.70;;;;;;5031532;28;20170;-63
2022/10/04 13:49:42;;;;;;;0.00;0.00;;;20.80;89.70;;;;;;5031481;28;20178;-64
2022/10/04 13:58:49;;;;;;;0.00;0.00;;;20.60;90.20;;;;;;5034962;28;20229;-64
2022/10/04 14:01:24;;;;;;;0.05;0.05;;;20.60;90.50;;;;;;5034782;28;20180;-63
2022/10/04 14:04:16;;;;;;;0.00;0.00;;;20.60;90.20;;;;;;5034802;28;20241;-63
2022/10/04 14:07:17;;;;;;;0.03;0.03;;;20.60;90.40;;;;;;5034837;28;20178;-63
2022/10/04 14:10:09;;;;;;;0.00;0.00;;;20.50;90.70;;;;;;5034971;28;20174;-64
2022/10/04 14:12:49;;;;;;;0.00;0.00;;;20.50;90.60;;;;;;5034683;28;20622;-64
2022/10/04 14:15:29;;;;;;;0.00;0.00;;;20.50;90.60;;;;;;5034494;28;20181;-62
2022/10/04 14:18:19;;;;;;;0.68;0.68;;;20.40;90.70;;;;;;5044852;28;20236;-64
2022/10/04 14:20:45;;;;;;;0.00;0.00;;;20.30;91.00;;;;;;5034673;28;20181;-64
2022/10/04 14:23:22;;;;;;;0.00;0.00;;;20.30;90.90;;;;;;5034407;28;20214;-63
2022/10/04 14:25:54;;;;;;;0.00;0.00;;;20.30;91.00;;;;;;5034560;28;20177;-64